createdAt,value
2022-12-11T00:00:15.633Z,13.63
2022-12-11T00:02:42.192Z,13.13
2022-12-11T00:05:09.295Z,13.02
2022-12-11T00:07:36.048Z,12.88
2022-12-11T00:10:02.987Z,13.63
2022-12-11T00:12:30.654Z,15.48
2022-12-11T00:14:57.303Z,13.70
2022-12-11T00:17:23.871Z,13.00
2022-12-11T00:19:50.327Z,15.88
2022-12-11T00:22:17.038Z,14.55
2022-12-11T00:24:43.465Z,13.70
2022-12-11T00:27:09.968Z,12.45
2022-12-11T00:29:36.450Z,16.40
2022-12-11T00:32:02.923Z,14.05
2022-12-11T00:34:30.152Z,14.60
2022-12-11T00:36:56.763Z,14.48
2022-12-11T00:39:23.228Z,12.95
2022-12-11T00:41:49.776Z,14.50
2022-12-11T00:44:16.303Z,12.93
2022-12-11T00:46:42.795Z,12.95
2022-12-11T00:49:09.371Z,13.48
2022-12-11T00:51:35.846Z,14.98
2022-12-11T00:54:03.274Z,12.85
2022-12-11T00:56:29.959Z,13.93
2022-12-11T00:58:56.483Z,14.95
2022-12-11T01:01:25.345Z,15.13
2022-12-11T01:03:53.619Z,13.38
2022-12-11T01:06:23.041Z,14.73
2022-12-11T01:09:09.633Z,14.55
2022-12-11T01:11:36.732Z,15.15
2022-12-11T01:14:03.999Z,13.40
2022-12-11T01:16:30.551Z,14.63
2022-12-11T01:18:57.836Z,15.48
2022-12-11T01:21:24.383Z,12.90
2022-12-11T01:23:51.644Z,15.82
2022-12-11T01:26:18.638Z,14.85
2022-12-11T01:28:45.671Z,16.63
2022-12-11T01:31:14.511Z,14.70
2022-12-11T01:33:41.491Z,15.20
2022-12-11T01:36:26.227Z,15.70
2022-12-11T01:38:54.386Z,15.57
2022-12-11T01:41:21.517Z,14.48
2022-12-11T01:44:15.450Z,15.63
2022-12-11T01:46:43.171Z,16.10
2022-12-11T01:49:13.792Z,14.38
2022-12-11T01:51:51.702Z,14.57
2022-12-11T01:54:20.167Z,14.55
2022-12-11T01:56:49.211Z,14.52
2022-12-11T01:59:19.900Z,14.77
2022-12-11T02:01:54.715Z,14.27
2022-12-11T02:04:21.599Z,15.40
2022-12-11T02:06:51.848Z,15.68
2022-12-11T02:09:29.979Z,15.30
2022-12-11T02:12:25.447Z,14.13
2022-12-11T02:15:33.391Z,14.68
2022-12-11T02:18:07.777Z,12.80
2022-12-11T02:20:42.042Z,15.25
2022-12-11T02:23:42.375Z,12.88
2022-12-11T02:26:17.976Z,14.85
2022-12-11T02:28:49.635Z,13.98
2022-12-11T02:31:29.042Z,15.90
2022-12-11T02:34:09.648Z,16.77
2022-12-11T02:36:40.202Z,15.70
2022-12-11T02:39:10.400Z,14.77
2022-12-11T02:41:37.735Z,14.57
2022-12-11T02:44:05.180Z,14.98
2022-12-11T02:46:34.790Z,14.70
2022-12-11T02:49:05.830Z,15.60
2022-12-11T02:51:36.402Z,14.43
2022-12-11T02:54:04.451Z,14.27
2022-12-11T02:56:38.155Z,13.90
2022-12-11T02:59:11.158Z,15.50
2022-12-11T03:01:38.036Z,14.27
2022-12-11T03:04:04.635Z,15.45
2022-12-11T03:06:42.314Z,14.80
2022-12-11T03:09:08.839Z,14.18
2022-12-11T03:11:35.371Z,16.02
2022-12-11T03:14:03.064Z,14.75
2022-12-11T03:16:42.938Z,13.80
2022-12-11T03:19:13.050Z,14.98
2022-12-11T03:21:49.183Z,14.02
2022-12-11T03:24:38.366Z,14.23
2022-12-11T03:27:29.362Z,13.40
2022-12-11T03:30:02.223Z,13.13
2022-12-11T03:32:38.603Z,14.13
2022-12-11T03:35:14.867Z,15.15
2022-12-11T03:37:44.684Z,14.02
2022-12-11T03:40:16.207Z,13.25
2022-12-11T03:42:45.831Z,14.80
2022-12-11T03:45:14.317Z,12.60
2022-12-11T03:47:43.283Z,13.52
2022-12-11T03:50:12.342Z,14.02
2022-12-11T03:52:45.809Z,12.98
2022-12-11T03:55:14.980Z,13.50
2022-12-11T03:57:41.595Z,13.82
2022-12-11T04:00:12.197Z,12.95
2022-12-11T04:02:38.968Z,15.10
2022-12-11T04:05:05.967Z,12.98
2022-12-11T04:07:32.451Z,14.60
2022-12-11T04:09:59.034Z,13.98
2022-12-11T04:12:25.761Z,13.18
2022-12-11T04:15:04.328Z,12.75
2022-12-11T04:17:54.811Z,12.57
2022-12-11T04:20:40.361Z,14.30
2022-12-11T04:23:30.815Z,13.75
2022-12-11T04:26:15.897Z,13.32
2022-12-11T04:28:43.870Z,12.75
2022-12-11T04:31:20.050Z,12.75
2022-12-11T04:33:47.239Z,13.05
2022-12-11T04:36:13.968Z,12.38
2022-12-11T04:38:40.703Z,12.73
2022-12-11T04:41:12.012Z,10.95
2022-12-11T04:43:39.656Z,12.48
2022-12-11T04:46:17.357Z,12.23
2022-12-11T04:48:44.747Z,11.88
2022-12-11T04:51:11.652Z,11.25
2022-12-11T04:53:38.503Z,11.70
2022-12-11T04:56:06.426Z,12.85
2022-12-11T04:58:33.092Z,11.52
2022-12-11T05:00:59.570Z,11.52
2022-12-11T05:03:26.166Z,10.43
2022-12-11T05:05:53.795Z,11.40
2022-12-11T05:08:21.264Z,12.07
2022-12-11T05:11:03.411Z,11.25
2022-12-11T05:13:30.763Z,10.02
2022-12-11T05:15:58.297Z,11.52
2022-12-11T05:18:25.403Z,10.45
2022-12-11T05:21:00.330Z,10.20
2022-12-11T05:23:27.269Z,11.45
2022-12-11T05:25:58.759Z,11.35
2022-12-11T05:28:26.680Z,10.82
2022-12-11T05:31:05.019Z,11.48
2022-12-11T05:33:32.197Z,10.73
2022-12-11T05:35:58.841Z,11.00
2022-12-11T05:38:25.488Z,9.55
2022-12-11T05:41:07.205Z,10.27
2022-12-11T05:43:35.620Z,10.27
2022-12-11T05:46:10.197Z,11.43
2022-12-11T05:48:37.897Z,11.43
2022-12-11T05:51:04.999Z,11.00
2022-12-11T05:53:31.702Z,10.32
2022-12-11T05:56:03.152Z,10.45
2022-12-11T05:58:30.224Z,10.20
2022-12-11T06:00:56.726Z,10.32
2022-12-11T06:03:23.187Z,11.43
2022-12-11T06:05:49.659Z,10.88
2022-12-11T06:08:16.212Z,12.55
2022-12-11T06:10:46.988Z,9.95
2022-12-11T06:13:14.069Z,10.07
2022-12-11T06:15:40.884Z,9.80
2022-12-11T06:18:07.450Z,9.80
2022-12-11T06:20:35.251Z,11.57
2022-12-11T06:23:02.372Z,10.95
2022-12-11T06:25:29.714Z,10.40
2022-12-11T06:27:56.704Z,12.25
2022-12-11T06:30:23.512Z,12.68
2022-12-11T06:33:05.340Z,10.57
2022-12-11T06:35:31.846Z,16.30
2022-12-11T06:37:58.963Z,12.27
2022-12-11T06:40:25.496Z,14.27
2022-12-11T06:42:51.993Z,13.63
2022-12-11T06:45:18.469Z,19.13
2022-12-11T06:47:44.998Z,12.38
2022-12-11T06:50:11.569Z,11.80
2022-12-11T06:52:38.107Z,15.05
2022-12-11T06:55:05.116Z,10.98
2022-12-11T06:57:31.578Z,11.00
2022-12-11T06:59:58.067Z,12.80
2022-12-11T07:02:24.592Z,12.85
2022-12-11T07:04:55.083Z,12.77
2022-12-11T07:07:21.907Z,13.63
2022-12-11T07:09:48.429Z,13.75
2022-12-11T07:12:14.903Z,13.30
2022-12-11T07:14:41.377Z,13.20
2022-12-11T07:17:07.935Z,13.55
2022-12-11T07:19:34.559Z,13.85
2022-12-11T07:22:01.031Z,12.88
2022-12-11T07:24:27.703Z,13.02
2022-12-11T07:26:54.226Z,12.90
2022-12-11T07:29:20.700Z,14.13
2022-12-11T07:31:47.319Z,13.10
2022-12-11T07:34:14.149Z,13.35
2022-12-11T07:36:41.091Z,13.32
2022-12-11T07:39:09.000Z,13.07
2022-12-11T07:41:35.718Z,13.07
2022-12-11T07:44:02.942Z,13.23
2022-12-11T07:46:31.759Z,12.32
2022-12-11T07:49:00.834Z,12.85
2022-12-11T07:51:30.535Z,13.02
2022-12-11T07:54:02.544Z,12.23
2022-12-11T07:56:29.834Z,12.73
2022-12-11T07:59:00.391Z,12.95
2022-12-11T08:01:28.911Z,12.13
2022-12-11T08:03:55.776Z,11.13
2022-12-11T08:06:28.660Z,12.60
2022-12-11T08:08:56.597Z,13.15
2022-12-11T08:11:23.689Z,13.15
2022-12-11T08:13:50.301Z,11.98
2022-12-11T08:16:17.683Z,12.73
2022-12-11T08:18:45.712Z,12.75
2022-12-11T08:21:26.089Z,13.27
2022-12-11T08:23:53.662Z,12.30
2022-12-11T08:26:31.631Z,12.63
2022-12-11T08:28:59.315Z,10.93
2022-12-11T08:31:29.027Z,12.07
2022-12-11T08:33:56.903Z,14.88
2022-12-11T08:36:24.771Z,13.50
2022-12-11T08:38:52.045Z,13.13
2022-12-11T08:41:22.073Z,13.18
2022-12-11T08:43:48.836Z,13.35
2022-12-11T08:46:16.118Z,13.32
2022-12-11T08:48:43.354Z,13.48
2022-12-11T08:51:15.659Z,11.48
2022-12-11T08:53:42.802Z,12.60
2022-12-11T08:56:12.574Z,11.88
2022-12-11T08:58:39.097Z,10.85
2022-12-11T09:01:14.187Z,9.88
2022-12-11T09:03:45.306Z,10.05
2022-12-11T09:06:15.079Z,10.13
2022-12-11T09:08:46.008Z,10.27
2022-12-11T09:11:16.555Z,11.32
2022-12-11T09:13:43.676Z,11.98
2022-12-11T09:16:13.205Z,13.30
2022-12-11T09:18:40.599Z,11.25
2022-12-11T09:21:16.353Z,11.43
2022-12-11T09:23:43.425Z,11.57
2022-12-11T09:26:14.507Z,11.18
2022-12-11T09:28:46.301Z,13.93
2022-12-11T09:31:18.073Z,12.32
2022-12-11T09:33:44.937Z,12.70
2022-12-11T09:36:12.179Z,15.77
2022-12-11T09:38:39.037Z,21.88
2022-12-11T09:41:20.899Z,18.15
2022-12-11T09:44:01.653Z,14.40
2022-12-11T09:46:33.769Z,13.82
2022-12-11T09:49:03.396Z,13.00
2022-12-11T09:51:50.262Z,13.10
2022-12-11T09:54:19.612Z,13.98
2022-12-11T09:59:42.606Z,12.82
2022-12-11T10:02:18.995Z,14.27
2022-12-11T10:05:15.735Z,13.82
2022-12-11T10:07:48.143Z,14.65
2022-12-11T10:10:14.652Z,11.80
2022-12-11T10:12:59.820Z,16.60
2022-12-11T10:15:43.172Z,16.40
2022-12-11T10:18:36.473Z,14.13
2022-12-11T10:21:04.210Z,12.23
2022-12-11T10:23:54.039Z,12.52
2022-12-11T10:26:25.072Z,11.85
2022-12-11T10:28:51.993Z,15.20
2022-12-11T10:31:22.950Z,15.93
2022-12-11T10:33:54.652Z,13.35
2022-12-11T10:36:28.052Z,11.82
2022-12-11T10:38:55.132Z,14.43
2022-12-11T10:41:24.687Z,13.25
2022-12-11T10:43:53.276Z,17.05
2022-12-11T10:46:24.340Z,10.35
2022-12-11T10:48:54.817Z,13.20
2022-12-11T10:51:24.879Z,13.77
2022-12-11T10:53:58.149Z,11.40
2022-12-11T10:56:29.637Z,9.80
2022-12-11T11:01:35.897Z,15.23
2022-12-11T11:04:06.935Z,10.57
2022-12-11T11:06:34.034Z,15.23
2022-12-11T11:10:01.221Z,10.32
2022-12-11T11:12:27.895Z,13.80
2022-12-11T11:15:44.445Z,9.40
2022-12-11T11:18:26.408Z,9.45
2022-12-11T11:20:53.756Z,8.60
2022-12-11T11:23:24.613Z,10.27
2022-12-11T11:25:58.039Z,9.38
2022-12-11T11:28:30.822Z,10.32
2022-12-11T11:31:02.549Z,9.13
2022-12-11T11:33:31.418Z,9.57
2022-12-11T11:36:03.934Z,12.00
2022-12-11T11:38:58.890Z,11.00
2022-12-11T11:41:31.665Z,9.30
2022-12-11T11:44:03.259Z,9.85
2022-12-11T11:46:44.593Z,9.88
2022-12-11T11:49:23.256Z,9.55
2022-12-11T11:52:03.527Z,9.82
2022-12-11T11:54:37.870Z,8.63
2022-12-11T11:58:02.422Z,9.98
2022-12-11T12:00:33.557Z,9.88
2022-12-11T12:03:13.905Z,8.48
2022-12-11T12:06:10.945Z,9.20
2022-12-11T12:08:57.901Z,8.70
2022-12-11T12:11:52.846Z,8.57
2022-12-11T12:14:55.260Z,8.75
2022-12-11T12:17:36.041Z,8.80
2022-12-11T12:20:23.347Z,8.65
2022-12-11T12:23:46.519Z,9.60
2022-12-11T12:26:26.721Z,8.45
2022-12-11T12:29:18.407Z,8.70
2022-12-11T12:32:02.326Z,8.60
2022-12-11T12:34:42.035Z,13.13
2022-12-11T12:37:15.008Z,9.82
2022-12-11T12:40:03.359Z,8.70
2022-12-11T12:42:51.147Z,8.35
2022-12-11T12:45:22.604Z,10.23
2022-12-11T12:47:53.381Z,8.63
2022-12-11T12:50:23.694Z,8.52
2022-12-11T12:52:53.133Z,8.98
2022-12-11T12:55:24.335Z,13.27
2022-12-11T12:58:12.958Z,10.13
2022-12-11T13:00:42.283Z,27.58
2022-12-11T13:03:31.600Z,12.65
2022-12-11T13:06:11.745Z,11.02
2022-12-11T13:08:46.842Z,10.43
2022-12-11T13:11:16.177Z,10.93
2022-12-11T13:16:21.147Z,9.38
2022-12-11T13:18:48.468Z,10.15
2022-12-11T13:21:38.127Z,9.23
2022-12-11T13:24:20.016Z,9.10
2022-12-11T13:26:48.001Z,10.70
2022-12-11T13:29:32.429Z,17.23
2022-12-11T13:32:21.329Z,13.65
2022-12-11T13:34:55.448Z,14.32
2022-12-11T13:37:24.566Z,10.63
2022-12-11T13:39:52.347Z,10.20
2022-12-11T13:42:27.712Z,11.00
2022-12-11T13:44:54.508Z,11.70
2022-12-11T13:47:21.722Z,10.77
2022-12-11T13:49:56.734Z,10.48
2022-12-11T13:55:34.720Z,14.35
2022-12-11T13:58:01.464Z,11.98
2022-12-11T14:00:32.910Z,11.20
2022-12-11T14:03:04.735Z,11.13
2022-12-11T14:05:31.551Z,10.75
2022-12-11T14:08:02.792Z,13.13
2022-12-11T14:10:32.819Z,12.45
2022-12-11T14:12:59.270Z,11.32
2022-12-11T14:15:28.028Z,11.73
2022-12-11T14:17:55.539Z,11.30
2022-12-11T14:20:25.442Z,15.02
2022-12-11T14:22:52.038Z,11.65
2022-12-11T14:25:21.753Z,13.63
2022-12-11T14:27:50.907Z,12.43
2022-12-11T14:30:25.893Z,11.55
2022-12-11T14:32:58.271Z,12.13
2022-12-11T14:35:27.575Z,12.75
2022-12-11T14:40:27.412Z,12.25
2022-12-11T14:43:01.119Z,12.20
2022-12-11T14:45:39.322Z,12.40
2022-12-11T14:48:22.162Z,11.73
2022-12-11T14:50:52.770Z,10.98
2022-12-11T14:53:31.312Z,11.10
2022-12-11T14:56:02.910Z,11.30
2022-12-11T14:58:30.619Z,12.55
2022-12-11T15:01:06.398Z,15.23
2022-12-11T15:03:35.551Z,13.48
2022-12-11T15:06:03.575Z,17.02
2022-12-11T15:08:33.575Z,15.02
2022-12-11T15:11:18.877Z,23.98
2022-12-11T15:13:51.391Z,14.93
2022-12-11T15:16:18.914Z,11.43
2022-12-11T15:18:50.962Z,13.27
2022-12-11T15:21:39.228Z,13.07
2022-12-11T15:24:07.086Z,12.25
2022-12-11T15:26:37.398Z,11.95
2022-12-11T15:29:24.830Z,12.80
2022-12-11T15:32:10.581Z,12.02
2022-12-11T15:34:46.219Z,12.93
2022-12-11T15:37:33.087Z,12.55
2022-12-11T15:40:01.682Z,12.43
2022-12-11T15:42:39.763Z,12.65
2022-12-11T15:45:09.174Z,11.88
2022-12-11T15:47:35.918Z,13.18
2022-12-11T15:50:15.423Z,14.32
2022-12-11T15:52:41.850Z,13.02
2022-12-11T15:55:09.231Z,14.55
2022-12-11T15:57:36.906Z,11.85
2022-12-11T16:00:06.495Z,10.90
2022-12-11T16:02:33.536Z,11.82
2022-12-11T16:04:59.992Z,11.77
2022-12-11T16:07:26.691Z,12.15
2022-12-11T16:09:53.615Z,12.45
2022-12-11T16:12:21.561Z,11.98
2022-12-11T16:14:48.124Z,12.65
2022-12-11T16:17:15.555Z,13.23
2022-12-11T16:19:43.648Z,14.43
2022-12-11T16:22:12.374Z,13.10
2022-12-11T16:24:40.214Z,14.27
2022-12-11T16:27:07.814Z,12.27
2022-12-11T16:29:35.883Z,12.02
2022-12-11T16:32:02.386Z,11.38
2022-12-11T16:34:28.890Z,13.13
2022-12-11T16:36:58.088Z,12.50
2022-12-11T16:39:25.061Z,12.05
2022-12-11T16:41:51.530Z,12.10
2022-12-11T16:44:20.656Z,12.65
2022-12-11T16:46:47.864Z,16.73
2022-12-11T16:49:14.757Z,16.45
2022-12-11T16:51:41.952Z,13.93
2022-12-11T16:54:09.252Z,12.80
2022-12-11T16:56:36.308Z,10.77
2022-12-11T16:59:03.487Z,10.95
2022-12-11T17:01:30.425Z,10.73
2022-12-11T17:03:57.263Z,12.25
2022-12-11T17:06:23.931Z,11.40
2022-12-11T17:08:50.518Z,12.43
2022-12-11T17:11:20.998Z,26.55
2022-12-11T17:13:48.027Z,14.18
2022-12-11T17:16:16.234Z,16.70
2022-12-11T17:18:43.564Z,11.45
2022-12-11T17:21:15.570Z,11.90
2022-12-11T17:23:42.709Z,11.65
2022-12-11T17:26:09.779Z,12.35
2022-12-11T17:28:37.270Z,17.23
2022-12-11T17:31:08.186Z,27.45
2022-12-11T17:33:35.405Z,16.00
2022-12-11T17:36:04.345Z,11.35
2022-12-11T17:38:31.405Z,10.30
2022-12-11T17:40:58.298Z,10.48
2022-12-11T17:43:25.019Z,9.60
2022-12-11T17:45:55.339Z,11.10
2022-12-11T17:48:24.941Z,10.50
2022-12-11T17:50:52.745Z,10.02
2022-12-11T17:53:21.079Z,9.95
2022-12-11T17:55:48.502Z,10.95
2022-12-11T17:58:17.475Z,10.10
2022-12-11T18:00:46.189Z,10.57
2022-12-11T18:03:13.240Z,10.55
2022-12-11T18:05:47.678Z,10.45
2022-12-11T18:08:17.305Z,11.60
2022-12-11T18:10:44.022Z,10.93
2022-12-11T18:13:12.172Z,12.73
2022-12-11T18:15:39.637Z,11.93
2022-12-11T18:18:07.187Z,8.63
2022-12-11T18:20:35.118Z,14.93
2022-12-11T18:23:02.006Z,11.77
2022-12-11T18:25:28.678Z,11.68
2022-12-11T18:27:55.495Z,10.18
2022-12-11T18:30:22.802Z,10.13
2022-12-11T18:32:49.864Z,10.65
2022-12-11T18:35:17.399Z,10.80
2022-12-11T18:37:45.193Z,11.23
2022-12-11T18:40:14.506Z,12.35
2022-12-11T18:42:41.210Z,12.52
2022-12-11T18:45:08.362Z,12.18
2022-12-11T18:47:35.453Z,10.48
2022-12-11T18:50:07.328Z,13.30
2022-12-11T18:52:34.927Z,12.07
2022-12-11T18:55:01.652Z,10.23
2022-12-11T18:57:28.406Z,12.23
2022-12-11T18:59:55.156Z,8.70
2022-12-11T19:02:22.219Z,9.73
2022-12-11T19:04:48.880Z,9.95
2022-12-11T19:07:15.547Z,10.82
2022-12-11T19:09:47.651Z,10.15
2022-12-11T19:12:14.741Z,10.75
2022-12-11T19:14:41.431Z,12.75
2022-12-11T19:17:07.889Z,10.50
2022-12-11T19:19:35.930Z,11.70
2022-12-11T19:22:03.057Z,10.35
2022-12-11T19:24:29.749Z,8.63
2022-12-11T19:26:56.378Z,9.57
2022-12-11T19:29:27.775Z,8.48
2022-12-11T19:31:55.587Z,10.10
2022-12-11T19:34:23.561Z,9.55
2022-12-11T19:36:50.256Z,9.23
2022-12-11T19:39:17.561Z,9.35
2022-12-11T19:41:44.023Z,9.15
2022-12-11T19:44:10.555Z,9.93
2022-12-11T19:46:38.248Z,10.05
2022-12-11T19:49:05.525Z,9.93
2022-12-11T19:51:36.390Z,9.98
2022-12-11T19:54:03.097Z,9.45
2022-12-11T19:56:29.985Z,9.93
2022-12-11T19:58:57.047Z,9.98
2022-12-11T20:01:30.907Z,10.25
2022-12-11T20:04:03.477Z,10.25
2022-12-11T20:06:31.734Z,8.68
2022-12-11T20:08:58.400Z,13.07
2022-12-11T20:11:25.440Z,11.95
2022-12-11T20:13:52.071Z,11.02
2022-12-11T20:16:28.923Z,8.05
2022-12-11T20:19:08.312Z,9.15
2022-12-11T20:21:34.851Z,9.57
2022-12-11T20:24:01.355Z,9.50
2022-12-11T20:26:29.507Z,9.27
2022-12-11T20:28:57.138Z,10.02
2022-12-11T20:31:26.090Z,9.50
2022-12-11T20:33:53.295Z,11.65
2022-12-11T20:36:21.731Z,18.88
2022-12-11T20:38:49.144Z,12.13
2022-12-11T20:41:19.398Z,10.18
2022-12-11T20:43:46.983Z,9.88
2022-12-11T20:46:15.769Z,9.55
2022-12-11T20:48:44.556Z,10.07
2022-12-11T20:51:13.925Z,9.25
2022-12-11T20:56:19.562Z,8.45
2022-12-11T20:58:46.420Z,9.13
2022-12-11T21:01:18.643Z,9.75
2022-12-11T21:03:45.219Z,9.07
2022-12-11T21:06:25.715Z,10.05
2022-12-11T21:08:53.375Z,11.52
2022-12-11T21:11:20.325Z,9.93
2022-12-11T21:13:50.470Z,10.20
2022-12-11T21:16:18.250Z,9.15
2022-12-11T21:18:46.555Z,8.57
2022-12-11T21:21:14.142Z,8.27
2022-12-11T21:23:40.946Z,8.98
2022-12-11T21:26:07.546Z,9.25
2022-12-11T21:28:35.715Z,8.27
2022-12-11T21:31:06.364Z,9.48
2022-12-11T21:33:35.973Z,8.82
2022-12-11T21:36:05.715Z,8.98
2022-12-11T21:38:33.401Z,9.45
2022-12-11T21:41:10.568Z,9.60
2022-12-11T21:43:43.358Z,8.57
2022-12-11T21:46:27.685Z,9.70
2022-12-11T21:48:54.432Z,8.63
2022-12-11T21:51:28.615Z,9.55
2022-12-11T21:53:57.564Z,9.43
2022-12-11T21:56:25.546Z,9.70
2022-12-11T21:58:53.663Z,8.70
2022-12-11T22:01:30.625Z,9.27
2022-12-11T22:03:59.255Z,9.30
2022-12-11T22:06:25.846Z,9.40
2022-12-11T22:08:52.747Z,10.20
2022-12-11T22:11:23.131Z,10.45
2022-12-11T22:13:50.085Z,10.98
2022-12-11T22:16:16.722Z,10.30
2022-12-11T22:18:43.534Z,9.68
2022-12-11T22:21:10.596Z,8.85
2022-12-11T22:23:38.247Z,9.93
2022-12-11T22:26:06.760Z,9.52
2022-12-11T22:28:33.228Z,9.13
2022-12-11T22:31:00.099Z,9.43
2022-12-11T22:33:27.291Z,9.10
2022-12-11T22:35:58.030Z,9.07
2022-12-11T22:38:24.998Z,9.40
2022-12-11T22:40:52.771Z,8.95
2022-12-11T22:43:19.907Z,9.45
2022-12-11T22:45:46.582Z,9.00
2022-12-11T22:48:13.115Z,8.75
2022-12-11T22:50:40.082Z,9.00
2022-12-11T22:53:06.700Z,8.75
2022-12-11T22:55:34.051Z,8.35
2022-12-11T22:58:00.499Z,7.97
2022-12-11T23:00:26.977Z,8.27
2022-12-11T23:02:53.610Z,8.77
2022-12-11T23:05:20.097Z,9.45
2022-12-11T23:07:46.702Z,8.90
2022-12-11T23:10:16.975Z,9.70
2022-12-11T23:12:43.457Z,8.68
2022-12-11T23:15:11.231Z,9.55
2022-12-11T23:17:37.901Z,9.70
2022-12-11T23:20:05.887Z,10.02
2022-12-11T23:22:33.291Z,8.65
2022-12-11T23:24:59.749Z,10.73
2022-12-11T23:27:26.197Z,9.65
2022-12-11T23:29:52.677Z,9.57
2022-12-11T23:32:19.221Z,10.13
2022-12-11T23:34:45.706Z,9.77
2022-12-11T23:37:12.448Z,10.07
2022-12-11T23:39:38.982Z,9.60
2022-12-11T23:42:05.713Z,9.27
2022-12-11T23:44:32.207Z,8.63
2022-12-11T23:46:58.680Z,9.50
2022-12-11T23:49:25.167Z,9.00
2022-12-11T23:51:54.259Z,9.82
2022-12-11T23:54:20.727Z,9.95
2022-12-11T23:56:47.643Z,10.13
2022-12-11T23:59:15.122Z,10.73
